Time;durP1;ratioP1;P1;durP2;ratioP2;P2;SDS_P1;SDS_P2;PMS_P1;PMS_P2;Temp;Humidity;BMP_temperature;BMP_pressure;BME280_temperature;BME280_humidity;BME280_pressure;Samples;Min_cycle;Max_cycle;Signal;HPM_P1;HPM_P2
2023/10/15 00:06:51;;;;;;;4.3;2;;;;;;;11.97;88.51;;;;;
2023/10/15 00:17:50;;;;;;;10.1;3;;;;;;;11.89;88.07;;;;;
2023/10/15 00:27:52;;;;;;;10.1;3;;;;;;;11.92;88.03;;;;;
2023/10/15 00:37:54;;;;;;;10.1;3;;;;;;;11.86;87.8;;;;;
2023/10/15 00:48:00;;;;;;;5.7;2.5;;;;;;;11.66;86.76;;;;;
2023/10/15 00:59:07;;;;;;;5.7;2.5;;;;;;;11.79;87.52;;;;;
2023/10/15 01:08:50;;;;;;;5.7;2.5;;;;;;;11.72;86.53;;;;;
2023/10/15 01:19:51;;;;;;;4.4;2;;;;;;;11.73;87.36;;;;;
2023/10/15 01:30:50;;;;;;;4.4;2;;;;;;;11.7;86.59;;;;;
2023/10/15 01:40:52;;;;;;;4.4;2;;;;;;;11.55;85.51;;;;;
2023/10/15 01:50:50;;;;;;;6.1;2.1;;;;;;;11.58;86.43;;;;;
2023/10/15 02:00:50;;;;;;;6.1;2.1;;;;;;;11.51;86.38;;;;;
2023/10/15 02:11:51;;;;;;;5.3;2;;;;;;;11.47;86.1;;;;;
2023/10/15 02:21:51;;;;;;;5.3;2;;;;;;;11.5;86.6;;;;;
2023/10/15 02:32:53;;;;;;;5.3;2;;;;;;;11.36;86.63;;;;;
2023/10/15 02:42:53;;;;;;;7.7;2.6;;;;;;;11.27;86.27;;;;;
2023/10/15 02:52:54;;;;;;;7.7;2.6;;;;;;;11.21;86.51;;;;;
2023/10/15 03:03:52;;;;;;;7.7;2.6;;;;;;;11;86.42;;;;;
2023/10/15 03:13:53;;;;;;;5.4;2.2;;;;;;;11.03;86.42;;;;;
2023/10/15 03:23:51;;;;;;;5.4;2.2;;;;;;;11;86.14;;;;;
2023/10/15 03:34:59;;;;;;;5.4;2.2;;;;;;;10.86;85.54;;;;;
2023/10/15 03:44:59;;;;;;;9.1;3.2;;;;;;;10.89;85.82;;;;;
2023/10/15 03:55:51;;;;;;;9.1;3.2;;;;;;;10.75;83.92;;;;;
2023/10/15 04:05:52;;;;;;;9.1;3.2;;;;;;;10.64;84.2;;;;;
2023/10/15 04:15:51;;;;;;;6.9;3.7;;;;;;;10.46;83.32;;;;;
2023/10/15 04:25:53;;;;;;;6.9;3.7;;;;;;;10.41;84.28;;;;;
2023/10/15 04:35:52;;;;;;;6.9;3.7;;;;;;;10.2;84.06;;;;;
2023/10/15 04:45:54;;;;;;;6.7;2.6;;;;;;;10.03;83.3;;;;;
2023/10/15 04:56:52;;;;;;;6.7;2.6;;;;;;;9.88;81.71;;;;;
2023/10/15 05:06:51;;;;;;;6.7;2.6;;;;;;;9.75;81.17;;;;;
2023/10/15 05:17:51;;;;;;;9.3;2.8;;;;;;;9.5;81.82;;;;;
2023/10/15 05:28:52;;;;;;;9.3;2.8;;;;;;;9.11;81.59;;;;;
2023/10/15 05:39:51;;;;;;;9.3;2.8;;;;;;;8.88;81.5;;;;;
2023/10/15 05:50:52;;;;;;;4.9;2.1;;;;;;;8.82;81.92;;;;;
2023/10/15 06:01:52;;;;;;;4.9;2.1;;;;;;;8.88;82.37;;;;;
2023/10/15 06:12:51;;;;;;;6.9;2.2;;;;;;;8.93;82.13;;;;;
2023/10/15 06:23:52;;;;;;;6.9;2.2;;;;;;;9.09;80.24;;;;;
2023/10/15 06:33:51;;;;;;;6.9;2.2;;;;;;;9.16;77.53;;;;;
2023/10/15 06:43:52;;;;;;;5.1;2;;;;;;;9.18;78.14;;;;;
2023/10/15 06:54:54;;;;;;;5.1;2;;;;;;;9.34;77.33;;;;;
2023/10/15 07:05:52;;;;;;;5.1;2;;;;;;;9.43;76.56;;;;;
2023/10/15 07:15:52;;;;;;;5.9;2.2;;;;;;;9.48;76.73;;;;;
2023/10/15 07:26:52;;;;;;;5.9;2.2;;;;;;;9.52;75.3;;;;;
2023/10/15 07:36:55;;;;;;;5.9;2.2;;;;;;;9.81;76.15;;;;;
2023/10/15 07:47:51;;;;;;;7.7;2.1;;;;;;;9.91;73.91;;;;;
2023/10/15 07:57:52;;;;;;;7.7;2.1;;;;;;;9.75;73.24;;;;;
2023/10/15 08:07:52;;;;;;;7.7;2.1;;;;;;;10.06;72.32;;;;;
2023/10/15 08:17:52;;;;;;;3;1.3;;;;;;;10.03;70.32;;;;;
2023/10/15 08:28:52;;;;;;;3;1.3;;;;;;;10.13;69.84;;;;;
2023/10/15 08:38:52;;;;;;;3;1.3;;;;;;;10.17;70.9;;;;;
2023/10/15 08:49:52;;;;;;;9.4;2.3;;;;;;;10.71;69.38;;;;;
2023/10/15 08:59:52;;;;;;;9.4;2.3;;;;;;;11.16;66.93;;;;;
2023/10/15 09:09:52;;;;;;;9.4;2.3;;;;;;;11.33;66.29;;;;;
2023/10/15 09:20:52;;;;;;;7.8;3.5;;;;;;;11.6;65.49;;;;;
2023/10/15 09:31:56;;;;;;;7.8;3.5;;;;;;;11.8;63.07;;;;;
2023/10/15 09:41:52;;;;;;;5.6;2;;;;;;;11.78;62.92;;;;;
2023/10/15 09:52:55;;;;;;;5.6;2;;;;;;;11.81;62.11;;;;;
2023/10/15 10:02:52;;;;;;;5.6;2;;;;;;;11.93;61.56;;;;;
2023/10/15 10:13:52;;;;;;;5.2;2.1;;;;;;;12.14;60.01;;;;;
2023/10/15 10:23:53;;;;;;;5.2;2.1;;;;;;;12.19;60.61;;;;;
2023/10/15 10:34:52;;;;;;;5.2;2.1;;;;;;;12.43;61.6;;;;;
2023/10/15 10:45:52;;;;;;;9.2;2.1;;;;;;;12.53;58.4;;;;;
2023/10/15 10:55:52;;;;;;;9.2;2.1;;;;;;;12.35;57.54;;;;;
2023/10/15 11:06:52;;;;;;;9.2;2.1;;;;;;;12.36;53.61;;;;;
2023/10/15 11:17:52;;;;;;;8;2.3;;;;;;;12.17;53.18;;;;;
2023/10/15 11:28:52;;;;;;;8;2.3;;;;;;;12.17;55.54;;;;;
2023/10/15 11:38:52;;;;;;;8;2.3;;;;;;;12.13;55.06;;;;;
2023/10/15 11:48:52;;;;;;;5.9;1.6;;;;;;;12.32;54.91;;;;;
2023/10/15 11:59:52;;;;;;;5.9;1.6;;;;;;;12.35;54.61;;;;;
2023/10/15 12:09:52;;;;;;;5.9;1.6;;;;;;;12.16;54.7;;;;;
2023/10/15 12:19:52;;;;;;;5;2.3;;;;;;;12.37;55.91;;;;;
2023/10/15 12:29:54;;;;;;;5;2.3;;;;;;;12.38;56.52;;;;;
2023/10/15 12:40:52;;;;;;;5;2.3;;;;;;;12.55;55.58;;;;;
2023/10/15 12:50:52;;;;;;;5.7;2.2;;;;;;;12.2;55.98;;;;;
2023/10/15 13:00:53;;;;;;;5.7;2.2;;;;;;;12.09;55.75;;;;;
2023/10/15 13:10:52;;;;;;;5.7;2.2;;;;;;;12.19;56.24;;;;;
2023/10/15 13:20:52;;;;;;;5.1;2;;;;;;;12.35;56.41;;;;;
2023/10/15 13:30:52;;;;;;;5.1;2;;;;;;;12.35;54.48;;;;;
2023/10/15 13:41:52;;;;;;;4.4;1.8;;;;;;;12.16;55.92;;;;;
2023/10/15 13:51:52;;;;;;;4.4;1.8;;;;;;;12.04;56.6;;;;;
2023/10/15 14:01:52;;;;;;;4.4;1.8;;;;;;;11.93;56.54;;;;;
2023/10/15 14:11:52;;;;;;;4.7;1.7;;;;;;;11.35;57.53;;;;;
2023/10/15 14:22:54;;;;;;;4.7;1.7;;;;;;;11.85;57.26;;;;;
2023/10/15 14:33:52;;;;;;;4.7;1.7;;;;;;;11.89;57.84;;;;;
2023/10/15 14:44:52;;;;;;;6.6;2.3;;;;;;;11.63;56;;;;;
2023/10/15 14:55:52;;;;;;;6.6;2.3;;;;;;;11.03;55.37;;;;;
2023/10/15 15:05:52;;;;;;;6.6;2.3;;;;;;;10.61;54.07;;;;;
2023/10/15 15:16:52;;;;;;;3.7;1.8;;;;;;;10.44;55.79;;;;;
2023/10/15 15:26:52;;;;;;;3.7;1.8;;;;;;;10.18;56.62;;;;;
2023/10/15 15:37:52;;;;;;;3.7;1.8;;;;;;;9.74;58.73;;;;;
2023/10/15 15:48:52;;;;;;;6;2.7;;;;;;;9.27;60.99;;;;;
2023/10/15 15:58:52;;;;;;;6;2.7;;;;;;;8.86;63.42;;;;;
2023/10/15 16:08:52;;;;;;;6;2.7;;;;;;;8.26;66.03;;;;;
2023/10/15 16:19:52;;;;;;;4.7;2.1;;;;;;;7.79;67.46;;;;;
2023/10/15 16:29:52;;;;;;;4.7;2.1;;;;;;;7.45;70.05;;;;;
2023/10/15 16:39:52;;;;;;;4.7;2.1;;;;;;;7.18;71.05;;;;;
2023/10/15 16:50:52;;;;;;;5.6;2.7;;;;;;;6.98;72.46;;;;;
2023/10/15 17:01:52;;;;;;;5.6;2.7;;;;;;;6.83;73.33;;;;;
2023/10/15 17:11:52;;;;;;;5.4;2;;;;;;;6.63;72.43;;;;;
2023/10/15 17:22:52;;;;;;;5.4;2;;;;;;;6.35;72.56;;;;;
2023/10/15 17:32:54;;;;;;;5.4;2;;;;;;;6.04;72.73;;;;;
2023/10/15 17:43:52;;;;;;;4.5;2.2;;;;;;;6.02;74.64;;;;;
2023/10/15 17:53:52;;;;;;;4.5;2.2;;;;;;;6.01;74.94;;;;;
2023/10/15 18:03:52;;;;;;;4.5;2.2;;;;;;;6.15;75.83;;;;;
2023/10/15 18:13:52;;;;;;;11.4;3.3;;;;;;;6.27;75.23;;;;;
2023/10/15 18:24:52;;;;;;;11.4;3.3;;;;;;;6.49;75.63;;;;;
2023/10/15 18:34:52;;;;;;;11.4;3.3;;;;;;;6.48;76.1;;;;;
2023/10/15 18:45:52;;;;;;;11.2;4.4;;;;;;;6.45;75.44;;;;;
2023/10/15 18:55:52;;;;;;;11.2;4.4;;;;;;;6.68;75.92;;;;;
2023/10/15 19:06:52;;;;;;;11.2;4.4;;;;;;;6.82;76.41;;;;;
2023/10/15 19:16:52;;;;;;;9.8;5.2;;;;;;;6.83;76.74;;;;;
2023/10/15 19:27:52;;;;;;;9.8;5.2;;;;;;;7.02;77.14;;;;;
2023/10/15 19:38:52;;;;;;;9.8;5.2;;;;;;;7.15;76.45;;;;;
2023/10/15 19:48:52;;;;;;;14.5;7.2;;;;;;;7.18;76.4;;;;;
2023/10/15 19:59:52;;;;;;;14.5;7.2;;;;;;;7.23;76.97;;;;;
2023/10/15 20:09:52;;;;;;;14.5;7.2;;;;;;;7.15;77.03;;;;;
2023/10/15 20:19:52;;;;;;;11;5.5;;;;;;;6.95;77.34;;;;;
2023/10/15 20:30:52;;;;;;;11;5.5;;;;;;;6.79;77.74;;;;;
2023/10/15 20:40:53;;;;;;;10.3;3.9;;;;;;;6.62;78.06;;;;;
2023/10/15 20:51:52;;;;;;;10.3;3.9;;;;;;;6.49;78.37;;;;;
2023/10/15 21:02:54;;;;;;;10.3;3.9;;;;;;;6.36;79.19;;;;;
2023/10/15 21:13:53;;;;;;;6.5;2.6;;;;;;;6.31;79.57;;;;;
2023/10/15 21:23:52;;;;;;;6.5;2.6;;;;;;;6.18;80.04;;;;;
2023/10/15 21:33:52;;;;;;;6.5;2.6;;;;;;;6.22;80.92;;;;;
2023/10/15 21:44:52;;;;;;;8.4;2.6;;;;;;;6.34;80.36;;;;;
2023/10/15 21:55:52;;;;;;;8.4;2.6;;;;;;;6.24;80.38;;;;;
2023/10/15 22:05:52;;;;;;;8.4;2.6;;;;;;;6.18;81.58;;;;;
2023/10/15 22:15:52;;;;;;;5.7;3.8;;;;;;;6.13;81.59;;;;;
2023/10/15 22:26:52;;;;;;;5.7;3.8;;;;;;;6.21;81.32;;;;;
2023/10/15 22:37:52;;;;;;;5.7;3.8;;;;;;;6.38;80.44;;;;;
2023/10/15 22:47:52;;;;;;;8.4;3.7;;;;;;;6.38;79.98;;;;;
2023/10/15 22:58:52;;;;;;;8.4;3.7;;;;;;;6.36;79.75;;;;;
2023/10/15 23:09:52;;;;;;;8.4;3.7;;;;;;;6.09;80.28;;;;;
2023/10/15 23:20:52;;;;;;;7.4;3.2;;;;;;;5.9;81.9;;;;;
2023/10/15 23:30:55;;;;;;;7.4;3.2;;;;;;;5.78;82.06;;;;;
2023/10/15 23:40:52;;;;;;;5.9;2.6;;;;;;;5.81;82.73;;;;;
2023/10/15 23:51:52;;;;;;;5.9;2.6;;;;;;;5.66;82.91;;;;;
